Time;durP1;ratioP1;P1;durP2;ratioP2;P2;SDS_P1;SDS_P2;PMS_P1;PMS_P2;Temp;Humidity;BMP_temperature;BMP_pressure;BME280_temperature;BME280_humidity;BME280_pressure;Samples;Min_cycle;Max_cycle;Signal;HPM_P1;HPM_P2
2021/09/20 00:00:46;;;;;;;5.25;1.15;;;;;;;22.53;40.16;101079.41;4418319;32;20416;-69
2021/09/20 00:03:12;;;;;;;2.65;1.10;;;;;;;22.57;40.06;101085.66;4420824;32;20086;-68
2021/09/20 00:05:37;;;;;;;4.57;1.37;;;;;;;22.43;40.11;101081.66;4418379;32;20081;-68
2021/09/20 00:08:04;;;;;;;5.53;0.82;;;;;;;22.55;39.82;101085.41;4419454;32;20453;-68
2021/09/20 00:10:30;;;;;;;7.00;1.20;;;;;;;22.39;40.05;101080.31;4417634;32;20156;-68
2021/09/20 00:12:56;;;;;;;3.58;0.80;;;;;;;22.45;39.85;101079.06;4417553;32;20148;-68
2021/09/20 00:15:22;;;;;;;7.72;1.08;;;;;;;22.55;39.68;101085.41;4418127;32;20100;-68
2021/09/20 00:17:49;;;;;;;4.20;1.00;;;;;;;22.34;39.88;101089.69;4416251;32;20711;-69
2021/09/20 00:20:15;;;;;;;5.22;0.90;;;;;;;22.58;39.49;101093.00;4417756;32;20081;-68
2021/09/20 00:22:41;;;;;;;5.20;1.00;;;;;;;22.66;39.45;101091.19;4420338;32;20153;-68
2021/09/20 00:25:08;;;;;;;4.45;1.10;;;;;;;22.49;39.71;101088.19;4416941;32;20390;-68
2021/09/20 00:27:34;;;;;;;5.07;0.73;;;;;;;22.52;39.72;101086.44;4414880;32;20592;-68
2021/09/20 00:30:00;;;;;;;4.68;1.10;;;;;;;22.39;39.78;101078.25;4418035;32;20513;-68
2021/09/20 00:32:26;;;;;;;3.60;0.90;;;;;;;22.61;39.60;101086.22;4416163;32;20592;-68
2021/09/20 00:34:51;;;;;;;6.18;1.00;;;;;;;22.12;40.38;101084.56;4417472;32;20046;-68
2021/09/20 00:37:18;;;;;;;3.42;1.00;;;;;;;22.18;40.30;101088.25;4416155;32;20085;-68
2021/09/20 00:39:43;;;;;;;5.35;1.00;;;;;;;22.30;40.10;101092.78;4417732;32;20033;-68
2021/09/20 00:42:09;;;;;;;4.82;1.10;;;;;;;22.23;40.25;101095.34;4417839;32;20090;-68
2021/09/20 00:44:35;;;;;;;3.97;1.08;;;;;;;22.21;40.29;101101.56;4418557;32;20069;-68
2021/09/20 00:47:00;;;;;;;1.70;0.77;;;;;;;22.26;40.24;101100.84;4419541;32;20060;-68
2021/09/20 00:49:26;;;;;;;6.25;1.10;;;;;;;22.21;40.36;101110.19;4420831;32;20138;-68
2021/09/20 00:51:52;;;;;;;6.40;1.00;;;;;;;22.24;40.29;101108.41;4417767;32;20060;-68
2021/09/20 00:54:17;;;;;;;3.55;0.73;;;;;;;22.31;40.17;101107.91;4418704;32;20545;-68
2021/09/20 00:56:44;;;;;;;3.45;1.00;;;;;;;22.33;40.20;101116.81;4417068;32;20069;-68
2021/09/20 00:59:09;;;;;;;3.67;0.80;;;;;;;22.27;40.34;101113.09;4419081;32;20418;-68
2021/09/20 01:01:36;;;;;;;5.78;0.90;;;;;;;22.26;40.35;101123.78;4416090;32;20074;-68
2021/09/20 01:04:02;;;;;;;2.55;0.73;;;;;;;22.20;40.48;101117.22;4418145;32;20502;-68
2021/09/20 01:06:29;;;;;;;7.47;1.62;;;;;;;22.42;40.16;101107.97;4420540;32;20075;-68
2021/09/20 01:08:55;;;;;;;2.33;0.98;;;;;;;22.38;40.24;101107.44;4417939;32;20096;-68
2021/09/20 01:11:22;;;;;;;5.80;0.80;;;;;;;22.23;40.41;101116.19;4417065;32;20061;-68
2021/09/20 01:13:48;;;;;;;5.78;1.17;;;;;;;22.34;40.36;101109.75;4417016;32;20077;-68
2021/09/20 01:16:14;;;;;;;6.47;0.90;;;;;;;22.21;40.45;101110.19;4417345;32;20133;-68
2021/09/20 01:18:40;;;;;;;6.35;1.10;;;;;;;22.29;40.25;101122.75;4419954;32;20041;-68
2021/09/20 01:21:06;;;;;;;7.30;1.50;;;;;;;22.21;40.36;101115.16;4418154;32;20066;-68
2021/09/20 01:23:32;;;;;;;4.35;0.85;;;;;;;21.94;40.89;101116.50;4417392;32;20546;-68
2021/09/20 01:25:58;;;;;;;2.10;1.35;;;;;;;22.29;40.28;101119.91;4416893;32;20099;-68
2021/09/20 01:28:24;;;;;;;4.90;1.00;;;;;;;22.22;40.32;101117.50;4419535;32;20069;-68
2021/09/20 01:30:50;;;;;;;4.43;0.65;;;;;;;22.17;40.43;101121.09;4419598;32;20041;-68
2021/09/20 01:33:16;;;;;;;4.72;1.33;;;;;;;22.15;40.44;101122.91;4416569;32;20131;-68
2021/09/20 01:35:41;;;;;;;9.55;1.25;;;;;;;22.13;40.50;101125.50;4418805;32;20093;-68
2021/09/20 01:38:07;;;;;;;8.05;0.90;;;;;;;22.19;40.45;101129.19;4420378;32;20077;-68
2021/09/20 01:40:33;;;;;;;4.25;0.80;;;;;;;22.01;40.79;101112.38;4415684;32;20134;-68
2021/09/20 01:42:58;;;;;;;4.47;0.70;;;;;;;22.11;40.63;101116.62;4423422;32;20042;-68
2021/09/20 01:45:25;;;;;;;2.22;0.60;;;;;;;22.14;40.52;101122.13;4419830;32;20469;-67
2021/09/20 01:47:53;;;;;;;3.12;0.80;;;;;;;22.15;40.47;101106.50;4421907;32;20086;-69
2021/09/20 01:50:21;;;;;;;3.97;0.90;;;;;;;22.23;40.51;101118.28;4418279;32;20473;-68
2021/09/20 01:52:47;;;;;;;6.12;1.25;;;;;;;22.20;40.47;101119.28;4418832;32;20135;-69
2021/09/20 01:55:13;;;;;;;9.38;1.00;;;;;;;22.12;40.64;101107.50;4420915;32;20041;-68
2021/09/20 01:57:39;;;;;;;2.87;1.15;;;;;;;22.19;40.59;101123.47;4420486;32;20081;-67
2021/09/20 02:00:07;;;;;;;5.70;0.82;;;;;;;22.10;40.69;101115.06;4419228;32;20068;-68
2021/09/20 02:02:33;;;;;;;3.85;1.08;;;;;;;22.24;40.52;101114.13;4421431;32;20041;-67
2021/09/20 02:04:59;;;;;;;4.45;1.08;;;;;;;22.11;40.66;101128.09;4422848;32;20136;-68
2021/09/20 02:07:24;;;;;;;6.22;1.15;;;;;;;22.00;40.83;101133.75;4420096;32;20085;-69
2021/09/20 02:09:50;;;;;;;3.95;1.00;;;;;;;22.10;40.74;101120.78;4419588;32;20086;-69
2021/09/20 02:12:16;;;;;;;6.18;0.95;;;;;;;21.96;41.01;101128.22;4420826;32;20047;-69
2021/09/20 02:14:42;;;;;;;5.70;1.23;;;;;;;22.18;40.72;101136.25;4419743;32;20064;-69
2021/09/20 02:17:08;;;;;;;3.87;1.23;;;;;;;22.04;40.82;101132.22;4420412;32;20084;-69
2021/09/20 02:19:34;;;;;;;4.37;1.65;;;;;;;22.19;40.67;101132.88;4419377;32;20403;-69
2021/09/20 02:22:00;;;;;;;4.03;1.02;;;;;;;22.15;40.72;101132.28;4419919;32;20112;-69
2021/09/20 02:24:26;;;;;;;4.32;1.02;;;;;;;21.99;40.85;101146.50;4421849;32;20412;-69
2021/09/20 02:26:51;;;;;;;8.20;0.95;;;;;;;21.97;40.85;101135.56;4418826;32;20964;-69
2021/09/20 02:29:17;;;;;;;6.65;0.75;;;;;;;22.04;40.80;101134.28;4416977;32;20144;-69
2021/09/20 02:31:43;;;;;;;5.30;0.70;;;;;;;21.94;40.84;101130.84;4422339;32;20064;-69
2021/09/20 02:34:09;;;;;;;2.50;0.82;;;;;;;21.93;40.88;101137.84;4417286;32;20073;-69
2021/09/20 02:36:35;;;;;;;5.50;1.00;;;;;;;21.85;40.88;101138.81;4418378;32;20097;-69
2021/09/20 02:39:01;;;;;;;9.25;1.02;;;;;;;21.88;40.79;101132.06;4418449;32;20095;-69
2021/09/20 02:41:28;;;;;;;3.53;0.75;;;;;;;21.80;40.94;101137.47;4420701;32;20149;-69
2021/09/20 02:43:54;;;;;;;4.37;0.90;;;;;;;21.90;40.75;101135.22;4417188;32;20073;-69
2021/09/20 02:46:19;;;;;;;4.70;0.95;;;;;;;21.84;40.79;101140.12;4419922;32;20037;-69
2021/09/20 02:48:45;;;;;;;8.77;0.93;;;;;;;21.86;40.56;101141.16;4419275;32;20163;-69
2021/09/20 02:51:11;;;;;;;3.83;0.95;;;;;;;21.80;40.67;101143.19;4421856;32;20520;-69
2021/09/20 02:53:36;;;;;;;3.45;0.70;;;;;;;21.80;40.65;101137.47;4421610;32;20077;-69
2021/09/20 02:56:05;;;;;;;4.10;0.70;;;;;;;21.76;40.62;101141.84;4420310;32;20095;-69
2021/09/20 02:58:31;;;;;;;3.50;1.10;;;;;;;21.87;40.61;101131.28;4419402;32;20158;-69
2021/09/20 03:00:57;;;;;;;4.22;0.90;;;;;;;21.67;40.97;101134.19;4417298;32;20454;-69
2021/09/20 03:03:23;;;;;;;4.68;1.10;;;;;;;21.60;41.20;101144.00;4419359;32;20529;-69
2021/09/20 03:05:49;;;;;;;4.93;1.12;;;;;;;21.55;41.35;101139.03;4421227;32;20092;-69
2021/09/20 03:08:15;;;;;;;4.95;0.80;;;;;;;21.51;41.62;101144.19;4419295;32;20046;-69
2021/09/20 03:10:42;;;;;;;8.73;1.17;;;;;;;21.50;41.56;101136.09;4419655;32;20549;-69
2021/09/20 03:13:07;;;;;;;5.35;0.90;;;;;;;21.46;41.65;101144.12;4421207;32;20049;-69
2021/09/20 03:15:33;;;;;;;4.95;1.40;;;;;;;21.24;42.24;101144.69;4419173;32;20021;-69
2021/09/20 03:17:59;;;;;;;3.25;0.90;;;;;;;21.29;41.98;101148.87;4418664;32;20038;-69
2021/09/20 03:20:25;;;;;;;4.57;1.27;;;;;;;21.21;42.09;101144.88;4422699;32;20065;-69
2021/09/20 03:22:51;;;;;;;4.55;1.08;;;;;;;21.15;42.39;101150.53;4419013;32;20103;-69
2021/09/20 03:25:17;;;;;;;5.22;1.62;;;;;;;20.98;42.73;101157.31;4417927;32;20045;-69
2021/09/20 03:27:43;;;;;;;4.70;1.05;;;;;;;21.01;42.70;101156.31;4419410;32;20061;-69
2021/09/20 03:30:11;;;;;;;4.10;1.40;;;;;;;21.03;42.53;101154.56;4416160;32;20042;-70
2021/09/20 03:32:37;;;;;;;7.32;1.40;;;;;;;20.92;43.08;101157.22;4419610;32;20104;-69
2021/09/20 03:35:04;;;;;;;6.00;1.25;;;;;;;20.79;43.16;101159.66;4418766;32;20045;-69
2021/09/20 03:37:30;;;;;;;5.20;1.23;;;;;;;20.78;43.28;101154.44;4420533;32;20749;-69
2021/09/20 03:39:56;;;;;;;4.20;1.52;;;;;;;20.65;43.47;101154.75;4419496;32;20478;-69
2021/09/20 03:42:22;;;;;;;3.40;1.20;;;;;;;20.58;43.62;101160.13;4417894;32;20018;-69
2021/09/20 03:44:48;;;;;;;3.72;1.30;;;;;;;20.60;43.58;101161.22;4420683;32;20131;-69
2021/09/20 03:47:14;;;;;;;4.87;1.40;;;;;;;20.57;43.63;101167.12;4423568;32;20077;-69
2021/09/20 03:49:40;;;;;;;4.78;1.20;;;;;;;20.52;43.76;101171.47;4421187;32;20082;-69
2021/09/20 03:52:05;;;;;;;3.22;1.00;;;;;;;20.48;43.86;101165.19;4418683;32;20407;-69
2021/09/20 03:54:31;;;;;;;4.07;1.00;;;;;;;20.49;43.84;101180.28;4417728;32;20077;-69
2021/09/20 03:56:57;;;;;;;4.62;1.25;;;;;;;20.39;43.90;101173.88;4417001;32;20188;-69
2021/09/20 03:59:23;;;;;;;3.58;0.88;;;;;;;20.34;43.99;101179.53;4420819;32;20046;-69
2021/09/20 04:01:48;;;;;;;4.35;0.85;;;;;;;20.37;43.92;101185.00;4418494;32;20069;-69
2021/09/20 04:04:14;;;;;;;5.43;1.17;;;;;;;20.36;43.93;101203.47;4417829;32;20518;-69
2021/09/20 04:06:40;;;;;;;8.00;1.00;;;;;;;20.40;43.84;101191.84;4420568;32;20207;-69
2021/09/20 04:09:05;;;;;;;2.60;1.15;;;;;;;20.25;44.07;101196.78;4415767;32;20101;-69
2021/09/20 04:11:32;;;;;;;5.10;1.08;;;;;;;20.33;43.89;101201.59;4416624;32;20202;-69
2021/09/20 04:13:58;;;;;;;7.18;1.60;;;;;;;20.29;43.91;101200.22;4420452;32;20053;-69
2021/09/20 04:16:24;;;;;;;3.72;1.42;;;;;;;20.21;44.17;101199.81;4419202;32;20177;-69
2021/09/20 04:18:49;;;;;;;2.90;1.10;;;;;;;20.16;44.29;101203.41;4418895;32;20457;-69
2021/09/20 04:21:15;;;;;;;4.50;1.55;;;;;;;20.11;44.49;101208.97;4418980;32;20056;-69
2021/09/20 04:23:41;;;;;;;4.12;1.35;;;;;;;20.04;44.63;101215.09;4418513;32;20033;-69
2021/09/20 04:26:06;;;;;;;5.82;1.30;;;;;;;19.98;44.68;101215.00;4416380;32;20073;-69
2021/09/20 04:28:32;;;;;;;3.78;1.58;;;;;;;20.10;44.39;101218.81;4417603;32;20057;-69
2021/09/20 04:30:58;;;;;;;3.17;1.50;;;;;;;19.97;44.73;101224.06;4417911;32;20107;-69
2021/09/20 04:33:23;;;;;;;7.25;1.50;;;;;;;19.92;45.02;101231.25;4419611;32;20395;-69
2021/09/20 04:35:50;;;;;;;3.62;1.30;;;;;;;19.97;44.75;101226.91;4418521;32;20072;-69
2021/09/20 04:38:16;;;;;;;4.47;1.55;;;;;;;19.96;44.99;101231.81;4420132;32;20034;-69
2021/09/20 04:40:43;;;;;;;5.18;1.20;;;;;;;19.97;44.79;101232.63;4415463;32;20082;-69
2021/09/20 04:43:12;;;;;;;6.15;1.48;;;;;;;19.98;44.82;101237.06;4417248;32;20045;-69
2021/09/20 04:45:38;;;;;;;5.10;1.30;;;;;;;19.97;44.86;101239.09;4418720;32;20052;-69
2021/09/20 04:48:10;;;;;;;3.85;1.40;;;;;;;19.87;44.98;101240.47;4416878;32;20655;-69
2021/09/20 04:50:39;;;;;;;8.40;1.20;;;;;;;19.88;44.99;101235.56;4416418;32;20505;-69
2021/09/20 04:53:04;;;;;;;5.85;1.33;;;;;;;20.07;44.46;101254.09;4418447;32;20104;-69
2021/09/20 04:55:30;;;;;;;4.22;1.15;;;;;;;19.85;44.83;101254.47;4418784;32;20425;-69
2021/09/20 04:57:56;;;;;;;2.70;1.40;;;;;;;19.93;44.70;101255.66;4419806;32;20070;-69
2021/09/20 05:00:21;;;;;;;9.23;1.17;;;;;;;19.90;44.78;101256.66;4417203;32;20081;-69
2021/09/20 05:02:47;;;;;;;3.33;1.10;;;;;;;19.91;44.65;101261.06;4418848;32;20073;-69
2021/09/20 05:05:13;;;;;;;4.68;1.48;;;;;;;19.86;44.69;101264.63;4419783;32;20183;-69
2021/09/20 05:07:40;;;;;;;8.32;1.65;;;;;;;19.89;44.61;101269.38;4420211;32;20077;-69
2021/09/20 05:10:06;;;;;;;6.62;1.58;;;;;;;20.01;44.44;101271.16;4416066;32;20082;-69
2021/09/20 05:12:32;;;;;;;8.45;1.50;;;;;;;19.96;44.53;101277.53;4416499;32;20056;-69
2021/09/20 05:14:58;;;;;;;4.65;1.35;;;;;;;19.82;44.76;101271.81;4417393;32;20054;-69
2021/09/20 05:17:24;;;;;;;9.63;1.42;;;;;;;19.91;44.72;101286.00;4419671;32;20137;-69
2021/09/20 05:19:50;;;;;;;7.15;2.50;;;;;;;19.94;44.71;101285.81;4423153;32;20045;-69
2021/09/20 05:22:16;;;;;;;11.55;2.72;;;;;;;19.83;44.95;101282.75;4420755;32;20064;-69
2021/09/20 05:24:41;;;;;;;8.32;1.95;;;;;;;19.86;44.70;101287.47;4421299;32;20423;-69
2021/09/20 05:27:07;;;;;;;7.70;2.17;;;;;;;19.83;44.64;101294.94;4421395;32;20705;-69
2021/09/20 05:29:32;;;;;;;8.70;2.83;;;;;;;19.85;44.60;101294.44;4419121;32;20045;-69
2021/09/20 05:31:58;;;;;;;11.95;2.65;;;;;;;19.85;44.38;101299.41;4420579;32;20041;-69
2021/09/20 05:34:27;;;;;;;7.75;2.50;;;;;;;19.91;44.42;101301.06;4419879;32;20075;-69
2021/09/20 05:36:53;;;;;;;8.35;2.97;;;;;;;19.87;44.43;101306.19;4419032;32;20111;-71
2021/09/20 05:39:18;;;;;;;11.10;3.40;;;;;;;19.82;44.51;101308.94;4418885;32;20045;-69
2021/09/20 05:41:44;;;;;;;7.10;1.80;;;;;;;19.80;44.75;101315.13;4421495;32;20548;-69
2021/09/20 05:44:10;;;;;;;12.10;1.60;;;;;;;19.65;44.95;101315.09;4420818;32;20114;-69
2021/09/20 05:46:36;;;;;;;13.65;2.70;;;;;;;19.70;44.71;101319.34;4420558;32;20116;-69
2021/09/20 05:49:02;;;;;;;7.05;2.35;;;;;;;19.62;44.91;101313.22;4419315;32;20084;-69
2021/09/20 05:51:27;;;;;;;7.35;3.00;;;;;;;19.66;44.84;101324.44;4422734;32;20082;-69
2021/09/20 05:53:53;;;;;;;7.82;2.97;;;;;;;19.53;45.12;101326.75;4423126;32;20068;-69
2021/09/20 05:56:19;;;;;;;6.70;2.10;;;;;;;19.56;45.19;101325.78;4421441;32;20076;-69
2021/09/20 05:58:44;;;;;;;9.25;1.85;;;;;;;19.53;45.24;101326.75;4419417;32;20120;-69
2021/09/20 06:01:10;;;;;;;4.15;1.23;;;;;;;19.56;45.27;101325.78;4417892;32;20491;-69
2021/09/20 06:03:36;;;;;;;6.32;1.70;;;;;;;19.52;45.25;101336.62;4421647;32;20676;-69
2021/09/20 06:06:02;;;;;;;5.20;1.60;;;;;;;19.52;45.24;101334.53;4421501;32;20403;-69
2021/09/20 06:08:27;;;;;;;3.90;1.60;;;;;;;19.60;45.12;101329.25;4420511;32;20073;-69
2021/09/20 06:10:53;;;;;;;8.68;1.77;;;;;;;19.63;44.98;101342.53;4419929;32;20063;-69
2021/09/20 06:13:19;;;;;;;7.47;1.50;;;;;;;19.70;44.97;101339.34;4419466;32;20068;-69
2021/09/20 06:15:45;;;;;;;7.45;2.12;;;;;;;19.72;44.87;101345.34;4418850;32;20081;-69
2021/09/20 06:18:10;;;;;;;7.68;2.47;;;;;;;19.70;44.85;101356.47;4420451;32;20026;-69
2021/09/20 06:20:36;;;;;;;10.75;2.35;;;;;;;19.77;44.88;101351.19;4420681;32;20076;-69
2021/09/20 06:23:03;;;;;;;11.88;5.18;;;;;;;19.85;44.59;101363.00;4418765;32;20280;-69
2021/09/20 06:25:29;;;;;;;9.30;3.37;;;;;;;20.07;44.42;101359.84;4419275;32;20045;-69
2021/09/20 06:27:54;;;;;;;10.05;3.50;;;;;;;20.13;44.25;101358.69;4417016;32;20170;-69
2021/09/20 06:30:21;;;;;;;7.97;1.83;;;;;;;20.16;44.00;101359.78;4417903;32;20185;-69
2021/09/20 06:32:47;;;;;;;3.58;1.58;;;;;;;20.43;43.53;101363.16;4414401;32;20437;-69
2021/09/20 06:35:14;;;;;;;10.23;1.90;;;;;;;20.41;43.28;101368.59;4412761;32;20139;-68
2021/09/20 06:37:40;;;;;;;5.85;2.03;;;;;;;20.62;42.90;101367.41;4411930;32;20109;-68
2021/09/20 06:40:08;;;;;;;12.75;2.28;;;;;;;20.82;42.54;101373.22;4412283;32;20101;-68
2021/09/20 06:42:34;;;;;;;4.93;1.85;;;;;;;21.09;41.96;101375.78;4414360;32;20429;-69
2021/09/20 06:44:59;;;;;;;15.70;2.80;;;;;;;20.66;42.68;101378.66;4417264;32;20050;-68
2021/09/20 06:47:25;;;;;;;10.43;3.45;;;;;;;20.90;42.42;101377.25;4412017;32;20100;-69
2021/09/20 06:49:51;;;;;;;16.62;3.10;;;;;;;20.90;42.66;101388.69;4414560;32;20512;-69
2021/09/20 06:52:17;;;;;;;15.07;3.72;;;;;;;21.07;42.18;101386.94;4406837;32;20084;-69
2021/09/20 06:54:43;;;;;;;17.33;3.80;;;;;;;21.19;42.01;101391.56;4414127;32;20149;-70
2021/09/20 06:57:09;;;;;;;11.98;4.03;;;;;;;21.09;42.36;101392.97;4394437;32;20091;-70
2021/09/20 06:59:35;;;;;;;14.10;3.55;;;;;;;21.26;41.95;101393.25;4414996;32;20089;-70
2021/09/20 07:02:00;;;;;;;8.57;2.90;;;;;;;21.41;41.60;101399.69;4406523;32;20490;-69
2021/09/20 07:04:26;;;;;;;15.35;2.60;;;;;;;21.46;nan;101394.06;4409317;32;20069;-70
2021/09/20 07:06:52;;;;;;;12.55;3.60;;;;;;;21.58;41.06;101395.81;4396372;32;20381;-69
2021/09/20 07:09:18;;;;;;;17.62;4.10;;;;;;;21.61;40.89;101403.41;4407440;32;20340;-69
2021/09/20 07:11:43;;;;;;;10.77;2.70;;;;;;;21.74;40.82;101390.81;4401871;32;20076;-69
2021/09/20 07:14:09;;;;;;;14.75;2.70;;;;;;;21.92;40.38;101396.28;4406562;32;20354;-69
2021/09/20 07:16:35;;;;;;;9.57;2.50;;;;;;;22.08;40.20;101405.09;4408460;32;20126;-69
2021/09/20 07:19:01;;;;;;;10.65;3.10;;;;;;;22.19;39.92;101408.09;4411534;32;20152;-69
2021/09/20 07:21:29;;;;;;;9.40;3.30;;;;;;;22.33;39.83;101410.06;4410374;32;20456;-69
2021/09/20 07:23:55;;;;;;;15.50;3.62;;;;;;;22.43;39.76;101404.97;4410768;32;20539;-69
2021/09/20 07:26:23;;;;;;;11.48;2.97;;;;;;;22.67;39.55;101402.66;4410038;32;20068;-69
2021/09/20 07:28:49;;;;;;;7.47;1.58;;;;;;;22.85;39.35;101405.16;4410420;32;20084;-71
2021/09/20 07:31:15;;;;;;;5.07;0.70;;;;;;;22.78;39.06;101405.63;4408106;32;20085;-69
2021/09/20 07:33:41;;;;;;;3.00;1.60;;;;;;;23.04;38.20;101401.41;4411019;32;20065;-69
2021/09/20 07:36:08;;;;;;;3.95;0.80;;;;;;;23.14;38.06;101404.91;4408075;32;20077;-69
2021/09/20 07:38:35;;;;;;;6.25;2.03;;;;;;;23.39;37.63;101409.81;4413018;32;20086;-69
2021/09/20 07:41:01;;;;;;;2.50;1.00;;;;;;;23.49;37.47;101409.13;4407418;32;20121;-69
2021/09/20 07:43:27;;;;;;;2.33;0.88;;;;;;;23.34;37.51;101407.69;4411518;32;20049;-70
2021/09/20 07:45:53;;;;;;;6.07;1.15;;;;;;;23.45;37.21;101410.66;4406990;32;20172;-69
2021/09/20 07:48:18;;;;;;;11.27;1.10;;;;;;;23.55;37.14;101417.75;4395178;32;20586;-69
2021/09/20 07:50:44;;;;;;;6.28;1.10;;;;;;;23.65;36.93;101416.25;4411798;32;20049;-69
2021/09/20 07:53:12;;;;;;;4.40;1.10;;;;;;;23.72;36.61;101418.66;4408757;32;20078;-69
2021/09/20 07:55:37;;;;;;;3.47;1.10;;;;;;;23.86;36.52;101420.56;4396439;32;20426;-67
2021/09/20 07:58:06;;;;;;;7.68;1.77;;;;;;;23.92;36.38;101418.50;4404636;32;20388;-69
2021/09/20 08:00:34;;;;;;;3.37;1.20;;;;;;;24.29;36.11;101429.94;4410410;32;20109;-68
2021/09/20 08:03:00;;;;;;;6.37;1.58;;;;;;;24.35;35.91;101422.09;4413074;32;20054;-68
2021/09/20 08:05:25;;;;;;;9.13;2.12;;;;;;;24.47;35.74;101426.59;4415029;32;20056;-67
2021/09/20 08:07:51;;;;;;;5.28;1.87;;;;;;;24.60;35.30;101424.00;4409498;32;20162;-68
2021/09/20 08:10:17;;;;;;;7.97;1.85;;;;;;;24.74;35.26;101428.78;4391657;32;20376;-68
2021/09/20 08:12:43;;;;;;;4.03;1.20;;;;;;;24.84;35.10;101432.97;4409887;32;20053;-69
2021/09/20 08:15:10;;;;;;;6.20;1.60;;;;;;;24.83;34.87;101434.28;4414383;32;20057;-69
2021/09/20 08:17:36;;;;;;;4.25;1.10;;;;;;;25.35;34.39;101452.69;4412203;32;20159;-69
2021/09/20 08:20:05;;;;;;;2.35;0.80;;;;;;;25.44;33.99;101446.66;4411195;32;20132;-69
2021/09/20 08:22:32;;;;;;;4.95;1.17;;;;;;;25.87;33.34;101447.91;4411495;32;20087;-69
2021/09/20 08:24:58;;;;;;;4.10;0.80;;;;;;;26.20;32.83;101455.69;4411322;32;20151;-69
2021/09/20 08:27:23;;;;;;;3.95;0.90;;;;;;;25.89;32.84;101461.78;4410231;32;20077;-69
2021/09/20 08:29:51;;;;;;;3.37;1.02;;;;;;;26.55;31.96;101461.53;4407750;32;20072;-69
2021/09/20 08:32:18;;;;;;;4.05;0.55;;;;;;;27.03;31.30;101456.03;4410791;32;20197;-69
2021/09/20 08:34:43;;;;;;;2.78;0.90;;;;;;;27.36;30.63;101458.66;4409264;32;20080;-69
2021/09/20 08:37:10;;;;;;;3.00;0.75;;;;;;;27.62;30.18;101467.63;4410058;32;20130;-68
2021/09/20 08:39:36;;;;;;;2.90;0.65;;;;;;;27.91;29.97;101466.03;4407881;32;21334;-69
2021/09/20 08:42:02;;;;;;;4.25;0.80;;;;;;;28.38;29.38;101476.03;4409238;32;20101;-69
2021/09/20 08:44:28;;;;;;;3.42;0.93;;;;;;;28.57;28.96;101468.97;4407928;32;20210;-69
2021/09/20 08:46:54;;;;;;;3.20;0.60;;;;;;;28.84;28.37;101473.56;4411350;32;20077;-68
2021/09/20 08:49:23;;;;;;;4.45;1.27;;;;;;;28.34;29.04;101473.44;4409180;32;20108;-69
2021/09/20 08:51:51;;;;;;;5.05;1.10;;;;;;;28.45;29.25;101490.72;4408609;32;20102;-68
2021/09/20 08:54:18;;;;;;;3.30;1.00;;;;;;;28.20;29.63;101480.47;4415077;32;20072;-68
2021/09/20 08:56:44;;;;;;;8.45;2.97;;;;;;;28.79;28.74;101491.81;4409400;32;20235;-68
2021/09/20 08:59:12;;;;;;;8.50;1.70;;;;;;;29.05;28.86;101487.53;4412568;32;20140;-69
2021/09/20 09:01:39;;;;;;;2.47;0.60;;;;;;;29.18;28.62;101497.06;4413021;32;20080;-69
2021/09/20 09:04:27;;;;;;;2.90;1.25;;;;;;;29.37;28.31;101488.31;4397410;32;20097;-68
2021/09/20 09:09:37;;;;;;;6.53;1.50;;;;;;;29.88;28.17;101510.12;3983425;31;15070095;-69
2021/09/20 09:14:59;;;;;;;6.10;1.58;;;;;;;29.70;28.41;101508.84;3973854;32;15022947;-70
2021/09/20 09:17:28;;;;;;;2.87;1.08;;;;;;;29.89;28.08;101512.47;4424074;32;21683;-68
2021/09/20 09:22:52;;;;;;;6.60;2.25;;;;;;;30.78;26.87;101515.19;3970264;32;15023458;-70
2021/09/20 09:25:27;;;;;;;5.03;2.37;;;;;;;30.78;26.87;101515.19;4420022;32;20101;-68
2021/09/20 09:27:59;;;;;;;2.83;1.70;;;;;;;30.60;27.06;101527.72;4422124;32;20046;-68
2021/09/20 09:30:28;;;;;;;2.58;1.23;;;;;;;30.75;26.74;101521.34;4420072;32;20258;-70
2021/09/20 09:35:52;;;;;;;6.47;1.00;;;;;;;30.88;26.96;101524.22;3963286;32;15023168;-71
2021/09/20 09:38:19;;;;;;;1.95;0.73;;;;;;;30.88;26.96;101524.22;4415403;32;20076;-68
2021/09/20 09:46:24;;;;;;;3.55;0.75;;;;;;;30.94;26.93;101533.59;3957488;32;15025980;-70
2021/09/20 09:48:50;;;;;;;;;;;;;;;30.94;26.93;101533.59;4415480;32;20119;-69
2021/09/20 09:51:18;;;;;;;2.92;0.98;;;;;;;30.38;27.60;101530.28;4414217;32;19989;-69
2021/09/20 09:53:46;;;;;;;2.87;0.65;;;;;;;30.18;27.87;101533.81;4416057;32;21294;-69
2021/09/20 10:01:32;;;;;;;3.50;1.10;;;;;;;31.33;26.65;101550.97;3987305;31;15017588;-69
2021/09/20 10:09:23;;;;;;;3.75;1.05;;;;;;;31.59;26.05;101550.03;3974905;32;15022986;-68
2021/09/20 10:11:52;;;;;;;4.82;0.60;;;;;;;31.59;26.05;101550.03;4423888;32;20162;-68
2021/09/20 10:14:20;;;;;;;3.83;0.70;;;;;;;31.56;25.86;101545.34;4426487;32;20436;-70
2021/09/20 10:16:48;;;;;;;2.92;0.70;;;;;;;31.78;25.48;101550.62;4421710;32;20049;-70
2021/09/20 10:19:14;;;;;;;2.05;0.70;;;;;;;32.40;24.55;101542.63;4426244;32;20314;-70
2021/09/20 10:21:40;;;;;;;22.83;13.68;;;;;;;32.47;23.72;101553.56;4427153;32;22129;-70
2021/09/20 10:24:06;;;;;;;4.00;0.93;;;;;;;31.87;24.76;101548.03;4426262;32;20093;-70
2021/09/20 10:26:32;;;;;;;2.78;0.55;;;;;;;32.10;24.34;101556.94;4425849;32;20091;-68
2021/09/20 10:29:02;;;;;;;1.77;0.65;;;;;;;32.37;24.29;101546.69;4425997;32;20116;-70
2021/09/20 10:31:30;;;;;;;2.37;0.50;;;;;;;32.34;23.94;101554.44;4422864;32;20512;-69
2021/09/20 10:42:54;;;;;;;1.37;0.40;;;;;;;34.35;20.67;101557.75;3973301;32;15025255;-69
2021/09/20 10:51:14;;;;;;;18.48;9.13;;;;;;;33.89;20.61;101559.16;3987974;31;15015892;-71
2021/09/20 10:53:41;;;;;;;3.58;1.35;;;;;;;33.89;20.61;101559.16;4446447;32;20064;-69
2021/09/20 11:01:41;;;;;;;5.62;0.62;;;;;;;33.95;19.76;101561.88;3922455;32;15023262;-70
2021/09/20 11:04:29;;;;;;;1.98;0.50;;;;;;;33.95;19.76;101561.88;4364349;32;20340;-70
2021/09/20 11:07:16;;;;;;;7.20;5.00;;;;;;;33.77;18.67;101557.16;4368246;32;20078;-70
2021/09/20 11:12:21;;;;;;;4.07;0.60;;;;;;;34.38;17.88;101566.75;3948281;32;15726528;-69
2021/09/20 11:20:21;;;;;;;4.05;1.30;;;;;;;34.73;18.36;101571.53;3973764;32;15026828;-69
2021/09/20 11:22:48;;;;;;;1.17;0.40;;;;;;;34.73;18.36;101571.53;4421395;32;20453;-70
2021/09/20 11:25:16;;;;;;;3.28;0.62;;;;;;;34.38;18.68;101565.37;4422110;32;20187;-71
2021/09/20 11:27:46;;;;;;;2.05;0.40;;;;;;;34.62;18.19;101563.97;4423676;32;20073;-70
2021/09/20 11:30:19;;;;;;;2.67;0.43;;;;;;;35.25;17.23;101571.34;4419404;32;20555;-70
2021/09/20 11:35:29;;;;;;;3.67;1.50;;;;;;;36.29;16.66;101570.47;3979852;31;15018403;-70
2021/09/20 11:37:57;;;;;;;4.37;1.50;;;;;;;36.29;16.66;101570.47;4431149;32;20080;-71
2021/09/20 11:40:25;;;;;;;2.12;0.60;;;;;;;36.16;16.12;101577.38;4428852;32;20033;-71
2021/09/20 11:42:53;;;;;;;4.12;0.70;;;;;;;36.07;16.34;101578.06;4427646;32;20495;-71
2021/09/20 11:48:04;;;;;;;2.22;0.60;;;;;;;37.19;15.21;101581.19;3965555;32;15033288;-69
2021/09/20 11:50:32;;;;;;;19.27;12.85;;;;;;;35.96;16.05;101578.56;4412319;32;20069;-69
2021/09/20 11:53:01;;;;;;;1.00;0.40;;;;;;;36.76;15.48;101584.84;4415441;32;20135;-69
2021/09/20 11:55:30;;;;;;;6.90;2.95;;;;;;;36.00;15.87;101590.63;4414239;32;20136;-70
2021/09/20 11:57:59;;;;;;;3.33;1.20;;;;;;;36.13;15.75;101541.28;4412574;32;20114;-70
2021/09/20 12:00:27;;;;;;;1.85;0.50;;;;;;;35.89;16.27;101586.00;4412907;32;20089;-69
2021/09/20 12:02:56;;;;;;;2.50;1.10;;;;;;;35.29;16.58;101579.72;4414304;32;20157;-69
2021/09/20 12:05:26;;;;;;;1.55;0.40;;;;;;;35.86;16.26;101577.66;4415015;32;20057;-69
2021/09/20 12:10:34;;;;;;;6.25;2.67;;;;;;;35.49;16.54;101581.59;3969051;32;15023190;-70
2021/09/20 12:13:04;;;;;;;3.50;0.98;;;;;;;35.49;16.54;101581.59;4424704;32;20079;-70
2021/09/20 12:15:33;;;;;;;6.45;1.92;;;;;;;35.90;16.16;101583.88;4423702;32;20069;-69
2021/09/20 12:18:06;;;;;;;5.28;0.70;;;;;;;35.46;16.42;101585.72;4426618;32;20065;-68
2021/09/20 12:23:12;;;;;;;4.78;1.00;;;;;;;36.61;15.55;101587.91;3987964;31;15016404;-68
2021/09/20 12:25:42;;;;;;;3.95;1.27;;;;;;;36.61;15.55;101587.91;4447025;32;20398;-69
2021/09/20 12:28:17;;;;;;;5.07;1.50;;;;;;;36.23;15.80;101597.84;4446281;32;20080;-69